sensor_id;sensor_type;location;lat;lon;timestamp;P1;durP1;ratioP1;P2;durP2;ratioP2
69991;SDS011;57332;51.320;-0.580;2022-09-09T00:05:50;6.00;;;1.70;;
69991;SDS011;57332;51.320;-0.580;2022-09-09T00:32:24;9.10;;;2.33;;
69991;SDS011;57332;51.320;-0.580;2022-09-09T00:38:25;5.28;;;2.20;;
69991;SDS011;57332;51.320;-0.580;2022-09-09T00:44:30;11.60;;;3.03;;
69991;SDS011;57332;51.320;-0.580;2022-09-09T01:10:55;10.50;;;2.25;;
69991;SDS011;57332;51.320;-0.580;2022-09-09T01:13:29;5.75;;;1.92;;
69991;SDS011;57332;51.320;-0.580;2022-09-09T01:16:03;8.65;;;2.22;;
69991;SDS011;57332;51.320;-0.580;2022-09-09T01:31:56;6.38;;;2.70;;
69991;SDS011;57332;51.320;-0.580;2022-09-09T01:38:09;11.63;;;3.42;;
69991;SDS011;57332;51.320;-0.580;2022-09-09T01:40:55;9.07;;;3.30;;
69991;SDS011;57332;51.320;-0.580;2022-09-09T01:43:34;9.20;;;3.33;;
69991;SDS011;57332;51.320;-0.580;2022-09-09T01:46:04;9.52;;;3.22;;
69991;SDS011;57332;51.320;-0.580;2022-09-09T01:52:08;8.57;;;3.33;;
69991;SDS011;57332;51.320;-0.580;2022-09-09T02:01:46;7.05;;;3.08;;
69991;SDS011;57332;51.320;-0.580;2022-09-09T02:07:52;7.22;;;2.67;;
69991;SDS011;57332;51.320;-0.580;2022-09-09T02:14:21;5.68;;;2.75;;
69991;SDS011;57332;51.320;-0.580;2022-09-09T02:20:40;7.78;;;2.33;;
69991;SDS011;57332;51.320;-0.580;2022-09-09T02:26:32;10.15;;;2.50;;
69991;SDS011;57332;51.320;-0.580;2022-09-09T02:32:36;7.03;;;2.35;;
69991;SDS011;57332;51.320;-0.580;2022-09-09T02:38:52;9.95;;;2.50;;
69991;SDS011;57332;51.320;-0.580;2022-09-09T02:41:43;9.80;;;2.50;;
69991;SDS011;57332;51.320;-0.580;2022-09-09T02:50:57;7.20;;;2.20;;
69991;SDS011;57332;51.320;-0.580;2022-09-09T02:56:51;6.47;;;2.22;;
69991;SDS011;57332;51.320;-0.580;2022-09-09T02:59:20;5.20;;;2.53;;
69991;SDS011;57332;51.320;-0.580;2022-09-09T03:02:00;5.47;;;2.00;;
69991;SDS011;57332;51.320;-0.580;2022-09-09T03:08:28;6.97;;;2.08;;
69991;SDS011;57332;51.320;-0.580;2022-09-09T03:14:37;7.50;;;2.15;;
69991;SDS011;57332;51.320;-0.580;2022-09-09T03:20:42;4.63;;;1.98;;
69991;SDS011;57332;51.320;-0.580;2022-09-09T03:26:39;6.55;;;2.35;;
69991;SDS011;57332;51.320;-0.580;2022-09-09T03:32:34;7.15;;;2.10;;
69991;SDS011;57332;51.320;-0.580;2022-09-09T03:38:46;6.25;;;2.45;;
69991;SDS011;57332;51.320;-0.580;2022-09-09T03:44:47;8.02;;;2.72;;
69991;SDS011;57332;51.320;-0.580;2022-09-09T03:47:24;6.97;;;2.38;;
69991;SDS011;57332;51.320;-0.580;2022-09-09T03:56:55;8.82;;;2.65;;
69991;SDS011;57332;51.320;-0.580;2022-09-09T04:00:00;7.28;;;2.47;;
69991;SDS011;57332;51.320;-0.580;2022-09-09T04:02:47;7.78;;;2.70;;
69991;SDS011;57332;51.320;-0.580;2022-09-09T04:05:27;6.95;;;2.80;;
69991;SDS011;57332;51.320;-0.580;2022-09-09T04:14:14;9.35;;;3.28;;
69991;SDS011;57332;51.320;-0.580;2022-09-09T04:20:14;9.27;;;3.50;;
69991;SDS011;57332;51.320;-0.580;2022-09-09T04:22:47;9.63;;;3.33;;
69991;SDS011;57332;51.320;-0.580;2022-09-09T04:25:44;8.75;;;3.78;;
69991;SDS011;57332;51.320;-0.580;2022-09-09T04:28:28;9.48;;;3.35;;
69991;SDS011;57332;51.320;-0.580;2022-09-09T04:31:08;8.55;;;3.53;;
69991;SDS011;57332;51.320;-0.580;2022-09-09T04:33:38;11.15;;;4.30;;
69991;SDS011;57332;51.320;-0.580;2022-09-09T04:36:14;11.85;;;3.70;;
69991;SDS011;57332;51.320;-0.580;2022-09-09T04:38:45;11.60;;;4.22;;
69991;SDS011;57332;51.320;-0.580;2022-09-09T04:41:21;11.88;;;4.95;;
69991;SDS011;57332;51.320;-0.580;2022-09-09T04:44:02;11.10;;;4.53;;
69991;SDS011;57332;51.320;-0.580;2022-09-09T04:46:29;9.73;;;4.50;;
69991;SDS011;57332;51.320;-0.580;2022-09-09T04:49:22;10.63;;;4.40;;
69991;SDS011;57332;51.320;-0.580;2022-09-09T04:52:09;8.82;;;3.88;;
69991;SDS011;57332;51.320;-0.580;2022-09-09T04:54:44;9.75;;;4.43;;
69991;SDS011;57332;51.320;-0.580;2022-09-09T04:57:25;9.70;;;4.25;;
69991;SDS011;57332;51.320;-0.580;2022-09-09T05:00:11;13.15;;;4.30;;
69991;SDS011;57332;51.320;-0.580;2022-09-09T05:02:41;11.25;;;4.13;;
69991;SDS011;57332;51.320;-0.580;2022-09-09T05:05:13;8.82;;;4.03;;
69991;SDS011;57332;51.320;-0.580;2022-09-09T05:08:03;9.20;;;4.40;;
69991;SDS011;57332;51.320;-0.580;2022-09-09T05:10:52;11.30;;;4.30;;
69991;SDS011;57332;51.320;-0.580;2022-09-09T05:13:38;9.07;;;4.05;;
69991;SDS011;57332;51.320;-0.580;2022-09-09T05:16:17;9.05;;;3.92;;
69991;SDS011;57332;51.320;-0.580;2022-09-09T05:18:55;9.35;;;4.50;;
69991;SDS011;57332;51.320;-0.580;2022-09-09T05:21:38;9.48;;;3.97;;
69991;SDS011;57332;51.320;-0.580;2022-09-09T05:24:30;9.70;;;4.15;;
69991;SDS011;57332;51.320;-0.580;2022-09-09T05:27:01;11.93;;;4.68;;
69991;SDS011;57332;51.320;-0.580;2022-09-09T05:29:43;7.90;;;3.88;;
69991;SDS011;57332;51.320;-0.580;2022-09-09T05:32:22;9.93;;;4.47;;
69991;SDS011;57332;51.320;-0.580;2022-09-09T05:34:56;10.18;;;4.70;;
69991;SDS011;57332;51.320;-0.580;2022-09-09T05:37:44;11.15;;;4.03;;
69991;SDS011;57332;51.320;-0.580;2022-09-09T05:40:26;10.95;;;4.38;;
69991;SDS011;57332;51.320;-0.580;2022-09-09T05:43:07;10.05;;;4.43;;
69991;SDS011;57332;51.320;-0.580;2022-09-09T05:45:48;9.82;;;4.65;;
69991;SDS011;57332;51.320;-0.580;2022-09-09T05:48:16;10.45;;;4.68;;
69991;SDS011;57332;51.320;-0.580;2022-09-09T05:50:52;15.30;;;4.90;;
69991;SDS011;57332;51.320;-0.580;2022-09-09T05:53:22;9.60;;;4.55;;
69991;SDS011;57332;51.320;-0.580;2022-09-09T05:56:18;10.75;;;4.85;;
69991;SDS011;57332;51.320;-0.580;2022-09-09T05:58:46;11.85;;;5.03;;
69991;SDS011;57332;51.320;-0.580;2022-09-09T06:01:39;9.77;;;5.10;;
69991;SDS011;57332;51.320;-0.580;2022-09-09T06:04:09;10.18;;;4.78;;
69991;SDS011;57332;51.320;-0.580;2022-09-09T06:06:50;12.48;;;5.00;;
69991;SDS011;57332;51.320;-0.580;2022-09-09T06:09:43;12.30;;;4.90;;
69991;SDS011;57332;51.320;-0.580;2022-09-09T06:12:12;12.10;;;5.32;;
69991;SDS011;57332;51.320;-0.580;2022-09-09T06:15:02;9.88;;;4.53;;
69991;SDS011;57332;51.320;-0.580;2022-09-09T06:17:45;13.88;;;5.32;;
69991;SDS011;57332;51.320;-0.580;2022-09-09T06:20:12;14.85;;;6.10;;
69991;SDS011;57332;51.320;-0.580;2022-09-09T06:25:34;13.20;;;6.00;;
69991;SDS011;57332;51.320;-0.580;2022-09-09T06:28:02;9.52;;;5.03;;
69991;SDS011;57332;51.320;-0.580;2022-09-09T06:30:32;11.65;;;5.35;;
69991;SDS011;57332;51.320;-0.580;2022-09-09T06:33:04;10.00;;;5.10;;
69991;SDS011;57332;51.320;-0.580;2022-09-09T06:35:32;10.85;;;4.88;;
69991;SDS011;57332;51.320;-0.580;2022-09-09T06:38:07;7.90;;;4.43;;
69991;SDS011;57332;51.320;-0.580;2022-09-09T06:40:39;10.25;;;4.30;;
69991;SDS011;57332;51.320;-0.580;2022-09-09T06:43:18;7.20;;;4.03;;
69991;SDS011;57332;51.320;-0.580;2022-09-09T06:45:57;10.07;;;4.22;;
69991;SDS011;57332;51.320;-0.580;2022-09-09T06:48:54;10.73;;;4.05;;
69991;SDS011;57332;51.320;-0.580;2022-09-09T06:51:36;9.32;;;4.00;;
69991;SDS011;57332;51.320;-0.580;2022-09-09T06:54:31;9.13;;;4.00;;
69991;SDS011;57332;51.320;-0.580;2022-09-09T06:57:09;8.98;;;4.07;;
69991;SDS011;57332;51.320;-0.580;2022-09-09T07:00:19;6.57;;;3.55;;
69991;SDS011;57332;51.320;-0.580;2022-09-09T07:02:46;9.25;;;3.88;;
69991;SDS011;57332;51.320;-0.580;2022-09-09T07:05:16;7.10;;;3.97;;
69991;SDS011;57332;51.320;-0.580;2022-09-09T07:07:50;7.82;;;4.10;;
69991;SDS011;57332;51.320;-0.580;2022-09-09T07:10:17;10.50;;;4.70;;
69991;SDS011;57332;51.320;-0.580;2022-09-09T07:12:44;6.90;;;3.70;;
69991;SDS011;57332;51.320;-0.580;2022-09-09T07:15:11;8.00;;;3.97;;
69991;SDS011;57332;51.320;-0.580;2022-09-09T07:17:45;8.93;;;4.15;;
69991;SDS011;57332;51.320;-0.580;2022-09-09T07:20:53;8.40;;;4.15;;
69991;SDS011;57332;51.320;-0.580;2022-09-09T07:26:29;10.07;;;4.30;;
69991;SDS011;57332;51.320;-0.580;2022-09-09T07:29:07;9.30;;;4.05;;
69991;SDS011;57332;51.320;-0.580;2022-09-09T07:31:43;8.38;;;3.80;;
69991;SDS011;57332;51.320;-0.580;2022-09-09T07:34:36;8.88;;;3.67;;
69991;SDS011;57332;51.320;-0.580;2022-09-09T07:37:15;8.48;;;4.32;;
69991;SDS011;57332;51.320;-0.580;2022-09-09T07:40:10;6.80;;;4.00;;
69991;SDS011;57332;51.320;-0.580;2022-09-09T07:42:42;7.68;;;2.97;;
69991;SDS011;57332;51.320;-0.580;2022-09-09T07:45:22;7.45;;;3.83;;
69991;SDS011;57332;51.320;-0.580;2022-09-09T07:47:55;8.77;;;4.05;;
69991;SDS011;57332;51.320;-0.580;2022-09-09T07:50:46;9.00;;;3.90;;
69991;SDS011;57332;51.320;-0.580;2022-09-09T07:53:17;7.78;;;3.88;;
69991;SDS011;57332;51.320;-0.580;2022-09-09T07:55:46;9.88;;;4.75;;
69991;SDS011;57332;51.320;-0.580;2022-09-09T07:58:30;9.70;;;4.78;;
69991;SDS011;57332;51.320;-0.580;2022-09-09T08:01:10;10.35;;;5.57;;
69991;SDS011;57332;51.320;-0.580;2022-09-09T08:03:38;11.88;;;5.40;;
69991;SDS011;57332;51.320;-0.580;2022-09-09T08:06:06;15.05;;;6.85;;
69991;SDS011;57332;51.320;-0.580;2022-09-09T08:08:36;15.02;;;7.05;;
69991;SDS011;57332;51.320;-0.580;2022-09-09T08:13:31;16.48;;;6.93;;
69991;SDS011;57332;51.320;-0.580;2022-09-09T08:16:03;17.10;;;7.82;;
69991;SDS011;57332;51.320;-0.580;2022-09-09T08:18:31;16.25;;;6.82;;
69991;SDS011;57332;51.320;-0.580;2022-09-09T08:20:58;19.92;;;7.55;;
69991;SDS011;57332;51.320;-0.580;2022-09-09T08:23:35;17.10;;;7.55;;
69991;SDS011;57332;51.320;-0.580;2022-09-09T08:26:06;15.50;;;7.30;;
69991;SDS011;57332;51.320;-0.580;2022-09-09T08:28:42;17.13;;;7.70;;
69991;SDS011;57332;51.320;-0.580;2022-09-09T08:31:16;15.45;;;6.38;;
69991;SDS011;57332;51.320;-0.580;2022-09-09T08:33:44;15.85;;;7.07;;
69991;SDS011;57332;51.320;-0.580;2022-09-09T08:38:49;17.52;;;7.43;;
69991;SDS011;57332;51.320;-0.580;2022-09-09T08:49:39;12.23;;;5.82;;
69991;SDS011;57332;51.320;-0.580;2022-09-09T08:57:57;14.50;;;6.03;;
69991;SDS011;57332;51.320;-0.580;2022-09-09T09:00:34;13.23;;;6.32;;
69991;SDS011;57332;51.320;-0.580;2022-09-09T09:03:09;12.50;;;5.68;;
69991;SDS011;57332;51.320;-0.580;2022-09-09T09:08:56;12.98;;;5.97;;
69991;SDS011;57332;51.320;-0.580;2022-09-09T09:11:25;13.20;;;5.93;;
69991;SDS011;57332;51.320;-0.580;2022-09-09T09:14:02;10.02;;;5.38;;
69991;SDS011;57332;51.320;-0.580;2022-09-09T09:16:34;10.40;;;5.40;;
69991;SDS011;57332;51.320;-0.580;2022-09-09T09:19:14;10.55;;;5.93;;
69991;SDS011;57332;51.320;-0.580;2022-09-09T09:21:42;12.13;;;6.30;;
69991;SDS011;57332;51.320;-0.580;2022-09-09T09:24:14;13.43;;;6.53;;
69991;SDS011;57332;51.320;-0.580;2022-09-09T09:26:48;10.63;;;5.55;;
69991;SDS011;57332;51.320;-0.580;2022-09-09T09:29:20;12.23;;;5.38;;
69991;SDS011;57332;51.320;-0.580;2022-09-09T09:31:55;11.05;;;5.32;;
69991;SDS011;57332;51.320;-0.580;2022-09-09T09:34:23;8.68;;;5.18;;
69991;SDS011;57332;51.320;-0.580;2022-09-09T09:39:33;8.25;;;4.65;;
69991;SDS011;57332;51.320;-0.580;2022-09-09T09:42:24;7.43;;;4.43;;
69991;SDS011;57332;51.320;-0.580;2022-09-09T09:44:54;8.98;;;4.93;;
69991;SDS011;57332;51.320;-0.580;2022-09-09T09:47:21;10.63;;;4.80;;
69991;SDS011;57332;51.320;-0.580;2022-09-09T09:49:58;7.00;;;4.13;;
69991;SDS011;57332;51.320;-0.580;2022-09-09T09:52:30;8.77;;;3.67;;
69991;SDS011;57332;51.320;-0.580;2022-09-09T09:54:57;8.13;;;4.10;;
69991;SDS011;57332;51.320;-0.580;2022-09-09T09:57:33;9.23;;;4.22;;
69991;SDS011;57332;51.320;-0.580;2022-09-09T10:00:20;7.85;;;3.63;;
69991;SDS011;57332;51.320;-0.580;2022-09-09T10:02:48;6.78;;;3.53;;
69991;SDS011;57332;51.320;-0.580;2022-09-09T10:05:29;5.95;;;3.15;;
69991;SDS011;57332;51.320;-0.580;2022-09-09T10:10:34;6.97;;;2.35;;
69991;SDS011;57332;51.320;-0.580;2022-09-09T10:13:14;5.78;;;2.42;;
69991;SDS011;57332;51.320;-0.580;2022-09-09T10:15:48;5.88;;;2.60;;
69991;SDS011;57332;51.320;-0.580;2022-09-09T10:18:36;4.55;;;2.50;;
69991;SDS011;57332;51.320;-0.580;2022-09-09T10:36:57;4.32;;;2.10;;
69991;SDS011;57332;51.320;-0.580;2022-09-09T10:39:37;3.60;;;1.90;;
69991;SDS011;57332;51.320;-0.580;2022-09-09T10:42:13;3.67;;;1.80;;
69991;SDS011;57332;51.320;-0.580;2022-09-09T10:44:48;5.03;;;2.10;;
69991;SDS011;57332;51.320;-0.580;2022-09-09T10:49:58;5.40;;;2.42;;
69991;SDS011;57332;51.320;-0.580;2022-09-09T10:55:16;7.03;;;1.98;;
69991;SDS011;57332;51.320;-0.580;2022-09-09T10:57:51;3.95;;;1.63;;
69991;SDS011;57332;51.320;-0.580;2022-09-09T11:03:13;4.75;;;1.92;;
69991;SDS011;57332;51.320;-0.580;2022-09-09T11:08:16;3.55;;;1.70;;
69991;SDS011;57332;51.320;-0.580;2022-09-09T11:10:46;4.72;;;1.77;;
69991;SDS011;57332;51.320;-0.580;2022-09-09T11:16:00;3.80;;;1.73;;
69991;SDS011;57332;51.320;-0.580;2022-09-09T11:18:32;3.05;;;1.75;;
69991;SDS011;57332;51.320;-0.580;2022-09-09T11:21:02;4.20;;;1.95;;
69991;SDS011;57332;51.320;-0.580;2022-09-09T11:23:40;4.32;;;2.20;;
69991;SDS011;57332;51.320;-0.580;2022-09-09T11:26:20;6.10;;;2.65;;
69991;SDS011;57332;51.320;-0.580;2022-09-09T11:41:49;7.22;;;3.17;;
69991;SDS011;57332;51.320;-0.580;2022-09-09T11:44:17;4.60;;;2.65;;
69991;SDS011;57332;51.320;-0.580;2022-09-09T11:46:45;5.05;;;2.10;;
69991;SDS011;57332;51.320;-0.580;2022-09-09T11:49:25;3.63;;;2.00;;
69991;SDS011;57332;51.320;-0.580;2022-09-09T11:52:25;6.20;;;1.98;;
69991;SDS011;57332;51.320;-0.580;2022-09-09T11:54:50;5.50;;;2.55;;
69991;SDS011;57332;51.320;-0.580;2022-09-09T11:57:33;4.88;;;2.40;;
69991;SDS011;57332;51.320;-0.580;2022-09-09T12:00:02;5.82;;;2.35;;
69991;SDS011;57332;51.320;-0.580;2022-09-09T12:02:36;6.88;;;2.40;;
69991;SDS011;57332;51.320;-0.580;2022-09-09T12:05:05;3.33;;;1.70;;
69991;SDS011;57332;51.320;-0.580;2022-09-09T12:12:36;3.08;;;1.55;;
69991;SDS011;57332;51.320;-0.580;2022-09-09T12:17:49;4.40;;;1.80;;
69991;SDS011;57332;51.320;-0.580;2022-09-09T12:20:18;3.60;;;1.90;;
69991;SDS011;57332;51.320;-0.580;2022-09-09T12:22:50;5.32;;;2.08;;
69991;SDS011;57332;51.320;-0.580;2022-09-09T12:33:33;5.43;;;2.75;;
69991;SDS011;57332;51.320;-0.580;2022-09-09T12:36:02;3.88;;;2.17;;
69991;SDS011;57332;51.320;-0.580;2022-09-09T12:38:36;5.10;;;1.60;;
69991;SDS011;57332;51.320;-0.580;2022-09-09T12:41:15;3.72;;;1.50;;
69991;SDS011;57332;51.320;-0.580;2022-09-09T12:43:46;4.63;;;1.63;;
69991;SDS011;57332;51.320;-0.580;2022-09-09T12:46:24;3.45;;;1.70;;
69991;SDS011;57332;51.320;-0.580;2022-09-09T12:49:04;3.58;;;1.40;;
69991;SDS011;57332;51.320;-0.580;2022-09-09T12:51:35;5.68;;;1.80;;
69991;SDS011;57332;51.320;-0.580;2022-09-09T12:54:04;3.70;;;1.60;;
69991;SDS011;57332;51.320;-0.580;2022-09-09T12:56:44;2.90;;;1.27;;
69991;SDS011;57332;51.320;-0.580;2022-09-09T12:59:22;4.03;;;1.48;;
69991;SDS011;57332;51.320;-0.580;2022-09-09T13:01:55;3.72;;;1.90;;
69991;SDS011;57332;51.320;-0.580;2022-09-09T13:04:29;3.83;;;2.15;;
69991;SDS011;57332;51.320;-0.580;2022-09-09T13:07:05;5.57;;;2.03;;
69991;SDS011;57332;51.320;-0.580;2022-09-09T13:09:36;3.22;;;1.92;;
69991;SDS011;57332;51.320;-0.580;2022-09-09T13:12:03;5.43;;;1.77;;
69991;SDS011;57332;51.320;-0.580;2022-09-09T13:14:33;3.33;;;1.40;;
69991;SDS011;57332;51.320;-0.580;2022-09-09T13:17:04;2.63;;;1.38;;
69991;SDS011;57332;51.320;-0.580;2022-09-09T13:19:38;3.78;;;1.25;;
69991;SDS011;57332;51.320;-0.580;2022-09-09T13:22:23;3.15;;;1.20;;
69991;SDS011;57332;51.320;-0.580;2022-09-09T13:27:50;2.90;;;1.20;;
69991;SDS011;57332;51.320;-0.580;2022-09-09T13:30:27;3.55;;;1.10;;
69991;SDS011;57332;51.320;-0.580;2022-09-09T13:35:53;2.53;;;1.00;;
69991;SDS011;57332;51.320;-0.580;2022-09-09T13:38:21;2.67;;;1.23;;
69991;SDS011;57332;51.320;-0.580;2022-09-09T13:41:10;2.55;;;1.05;;
69991;SDS011;57332;51.320;-0.580;2022-09-09T13:43:54;3.35;;;1.00;;
69991;SDS011;57332;51.320;-0.580;2022-09-09T13:51:21;5.65;;;1.02;;
69991;SDS011;57332;51.320;-0.580;2022-09-09T13:54:03;1.85;;;1.08;;
69991;SDS011;57332;51.320;-0.580;2022-09-09T13:56:38;2.65;;;1.10;;
69991;SDS011;57332;51.320;-0.580;2022-09-09T13:59:08;2.03;;;1.00;;
69991;SDS011;57332;51.320;-0.580;2022-09-09T14:01:38;3.35;;;1.10;;
69991;SDS011;57332;51.320;-0.580;2022-09-09T14:04:05;3.40;;;1.00;;
69991;SDS011;57332;51.320;-0.580;2022-09-09T14:09:26;1.42;;;0.90;;
69991;SDS011;57332;51.320;-0.580;2022-09-09T14:11:56;2.42;;;1.20;;
69991;SDS011;57332;51.320;-0.580;2022-09-09T14:14:25;3.97;;;1.00;;
69991;SDS011;57332;51.320;-0.580;2022-09-09T14:17:00;2.50;;;1.20;;
69991;SDS011;57332;51.320;-0.580;2022-09-09T14:19:36;3.55;;;1.30;;
69991;SDS011;57332;51.320;-0.580;2022-09-09T14:22:13;4.10;;;1.58;;
69991;SDS011;57332;51.320;-0.580;2022-09-09T14:24:43;2.17;;;1.10;;
69991;SDS011;57332;51.320;-0.580;2022-09-09T14:27:13;2.13;;;1.25;;
69991;SDS011;57332;51.320;-0.580;2022-09-09T14:29:50;2.30;;;1.38;;
69991;SDS011;57332;51.320;-0.580;2022-09-09T14:35:13;3.33;;;1.35;;
69991;SDS011;57332;51.320;-0.580;2022-09-09T14:37:50;4.13;;;1.40;;
69991;SDS011;57332;51.320;-0.580;2022-09-09T14:40:27;1.92;;;1.20;;
69991;SDS011;57332;51.320;-0.580;2022-09-09T14:42:57;3.25;;;1.17;;
69991;SDS011;57332;51.320;-0.580;2022-09-09T14:45:27;2.72;;;1.45;;
69991;SDS011;57332;51.320;-0.580;2022-09-09T14:47:59;2.50;;;1.20;;
69991;SDS011;57332;51.320;-0.580;2022-09-09T14:50:27;2.17;;;0.95;;
69991;SDS011;57332;51.320;-0.580;2022-09-09T14:53:08;3.63;;;1.30;;
69991;SDS011;57332;51.320;-0.580;2022-09-09T14:55:44;2.90;;;1.45;;
69991;SDS011;57332;51.320;-0.580;2022-09-09T14:58:13;2.72;;;1.60;;
69991;SDS011;57332;51.320;-0.580;2022-09-09T15:00:43;3.13;;;1.50;;
69991;SDS011;57332;51.320;-0.580;2022-09-09T15:03:10;3.90;;;1.40;;
69991;SDS011;57332;51.320;-0.580;2022-09-09T15:05:37;3.78;;;1.58;;
69991;SDS011;57332;51.320;-0.580;2022-09-09T15:08:04;2.50;;;1.40;;
69991;SDS011;57332;51.320;-0.580;2022-09-09T15:10:33;2.13;;;1.27;;
69991;SDS011;57332;51.320;-0.580;2022-09-09T15:13:01;2.45;;;1.63;;
69991;SDS011;57332;51.320;-0.580;2022-09-09T15:15:28;2.75;;;1.60;;
69991;SDS011;57332;51.320;-0.580;2022-09-09T15:18:00;1.90;;;1.20;;
69991;SDS011;57332;51.320;-0.580;2022-09-09T15:20:28;4.40;;;1.95;;
69991;SDS011;57332;51.320;-0.580;2022-09-09T15:23:03;1.73;;;1.00;;
69991;SDS011;57332;51.320;-0.580;2022-09-09T15:25:35;2.90;;;1.40;;
69991;SDS011;57332;51.320;-0.580;2022-09-09T15:28:02;2.05;;;1.20;;
69991;SDS011;57332;51.320;-0.580;2022-09-09T15:30:29;1.98;;;1.20;;
69991;SDS011;57332;51.320;-0.580;2022-09-09T15:32:57;2.53;;;1.55;;
69991;SDS011;57332;51.320;-0.580;2022-09-09T15:35:27;2.65;;;1.30;;
69991;SDS011;57332;51.320;-0.580;2022-09-09T15:38:01;1.77;;;1.10;;
69991;SDS011;57332;51.320;-0.580;2022-09-09T15:40:29;3.28;;;1.42;;
69991;SDS011;57332;51.320;-0.580;2022-09-09T15:43:03;2.45;;;1.30;;
69991;SDS011;57332;51.320;-0.580;2022-09-09T15:45:32;2.22;;;1.20;;
69991;SDS011;57332;51.320;-0.580;2022-09-09T15:48:00;2.53;;;1.20;;
69991;SDS011;57332;51.320;-0.580;2022-09-09T15:50:30;2.88;;;1.10;;
69991;SDS011;57332;51.320;-0.580;2022-09-09T15:52:58;3.05;;;1.83;;
69991;SDS011;57332;51.320;-0.580;2022-09-09T15:55:25;3.20;;;1.27;;
69991;SDS011;57332;51.320;-0.580;2022-09-09T15:57:57;2.30;;;1.30;;
69991;SDS011;57332;51.320;-0.580;2022-09-09T16:00:24;2.15;;;1.20;;
69991;SDS011;57332;51.320;-0.580;2022-09-09T16:02:56;3.03;;;1.00;;
69991;SDS011;57332;51.320;-0.580;2022-09-09T16:05:29;2.25;;;1.10;;
69991;SDS011;57332;51.320;-0.580;2022-09-09T16:08:02;2.25;;;1.10;;
69991;SDS011;57332;51.320;-0.580;2022-09-09T16:10:29;3.20;;;0.98;;
69991;SDS011;57332;51.320;-0.580;2022-09-09T16:13:06;2.90;;;1.60;;
69991;SDS011;57332;51.320;-0.580;2022-09-09T16:15:36;3.42;;;1.73;;
69991;SDS011;57332;51.320;-0.580;2022-09-09T16:18:03;2.60;;;1.45;;
69991;SDS011;57332;51.320;-0.580;2022-09-09T16:20:30;3.67;;;1.38;;
69991;SDS011;57332;51.320;-0.580;2022-09-09T16:23:00;3.20;;;1.63;;
69991;SDS011;57332;51.320;-0.580;2022-09-09T16:25:36;2.67;;;0.98;;
69991;SDS011;57332;51.320;-0.580;2022-09-09T16:28:02;1.60;;;1.08;;
69991;SDS011;57332;51.320;-0.580;2022-09-09T16:30:30;1.65;;;1.00;;
69991;SDS011;57332;51.320;-0.580;2022-09-09T16:32:59;1.90;;;1.00;;
69991;SDS011;57332;51.320;-0.580;2022-09-09T16:35:29;2.25;;;0.90;;
69991;SDS011;57332;51.320;-0.580;2022-09-09T16:38:02;2.83;;;1.13;;
69991;SDS011;57332;51.320;-0.580;2022-09-09T16:40:29;2.00;;;1.27;;
69991;SDS011;57332;51.320;-0.580;2022-09-09T16:42:57;3.42;;;1.10;;
69991;SDS011;57332;51.320;-0.580;2022-09-09T16:45:26;2.88;;;1.20;;
69991;SDS011;57332;51.320;-0.580;2022-09-09T16:48:09;2.15;;;1.10;;
69991;SDS011;57332;51.320;-0.580;2022-09-09T16:50:39;2.47;;;1.02;;
69991;SDS011;57332;51.320;-0.580;2022-09-09T16:53:11;2.97;;;1.10;;
69991;SDS011;57332;51.320;-0.580;2022-09-09T16:55:43;2.88;;;1.17;;
69991;SDS011;57332;51.320;-0.580;2022-09-09T16:58:13;2.42;;;1.08;;
69991;SDS011;57332;51.320;-0.580;2022-09-09T17:00:57;2.42;;;1.20;;
69991;SDS011;57332;51.320;-0.580;2022-09-09T17:06:12;2.58;;;1.10;;
69991;SDS011;57332;51.320;-0.580;2022-09-09T17:08:40;3.70;;;2.25;;
69991;SDS011;57332;51.320;-0.580;2022-09-09T17:11:19;2.42;;;1.00;;
69991;SDS011;57332;51.320;-0.580;2022-09-09T17:13:54;1.95;;;1.30;;
69991;SDS011;57332;51.320;-0.580;2022-09-09T17:16:26;2.75;;;1.50;;
69991;SDS011;57332;51.320;-0.580;2022-09-09T17:18:58;7.38;;;1.40;;
69991;SDS011;57332;51.320;-0.580;2022-09-09T17:21:28;2.63;;;1.30;;
69991;SDS011;57332;51.320;-0.580;2022-09-09T17:23:56;2.63;;;1.23;;
69991;SDS011;57332;51.320;-0.580;2022-09-09T17:26:28;2.22;;;1.23;;
69991;SDS011;57332;51.320;-0.580;2022-09-09T17:28:56;3.05;;;1.50;;
69991;SDS011;57332;51.320;-0.580;2022-09-09T17:31:26;2.15;;;1.30;;
69991;SDS011;57332;51.320;-0.580;2022-09-09T17:33:54;4.78;;;1.60;;
69991;SDS011;57332;51.320;-0.580;2022-09-09T17:36:22;3.35;;;1.35;;
69991;SDS011;57332;51.320;-0.580;2022-09-09T17:38:50;3.00;;;1.55;;
69991;SDS011;57332;51.320;-0.580;2022-09-09T17:41:25;3.42;;;1.27;;
69991;SDS011;57332;51.320;-0.580;2022-09-09T17:43:52;2.47;;;1.35;;
69991;SDS011;57332;51.320;-0.580;2022-09-09T17:46:21;3.45;;;1.48;;
69991;SDS011;57332;51.320;-0.580;2022-09-09T17:48:49;4.10;;;1.52;;
69991;SDS011;57332;51.320;-0.580;2022-09-09T17:51:18;3.75;;;1.25;;
69991;SDS011;57332;51.320;-0.580;2022-09-09T17:53:59;4.55;;;1.67;;
69991;SDS011;57332;51.320;-0.580;2022-09-09T17:56:27;3.70;;;1.80;;
69991;SDS011;57332;51.320;-0.580;2022-09-09T17:58:55;3.13;;;1.60;;
69991;SDS011;57332;51.320;-0.580;2022-09-09T18:01:23;3.78;;;1.70;;
69991;SDS011;57332;51.320;-0.580;2022-09-09T18:03:50;2.45;;;1.40;;
69991;SDS011;57332;51.320;-0.580;2022-09-09T18:06:19;3.00;;;1.23;;
69991;SDS011;57332;51.320;-0.580;2022-09-09T18:08:50;2.70;;;1.73;;
69991;SDS011;57332;51.320;-0.580;2022-09-09T18:11:23;3.17;;;2.03;;
69991;SDS011;57332;51.320;-0.580;2022-09-09T18:13:54;3.63;;;1.70;;
69991;SDS011;57332;51.320;-0.580;2022-09-09T18:16:24;2.65;;;1.30;;
69991;SDS011;57332;51.320;-0.580;2022-09-09T18:18:53;5.38;;;1.55;;
69991;SDS011;57332;51.320;-0.580;2022-09-09T18:21:24;3.50;;;1.77;;
69991;SDS011;57332;51.320;-0.580;2022-09-09T18:23:55;3.13;;;1.60;;
69991;SDS011;57332;51.320;-0.580;2022-09-09T18:26:23;3.72;;;1.75;;
69991;SDS011;57332;51.320;-0.580;2022-09-09T18:28:52;4.15;;;1.80;;
69991;SDS011;57332;51.320;-0.580;2022-09-09T18:31:20;3.33;;;1.60;;
69991;SDS011;57332;51.320;-0.580;2022-09-09T18:33:53;3.10;;;1.70;;
69991;SDS011;57332;51.320;-0.580;2022-09-09T18:36:23;5.03;;;2.20;;
69991;SDS011;57332;51.320;-0.580;2022-09-09T18:38:51;2.90;;;1.90;;
69991;SDS011;57332;51.320;-0.580;2022-09-09T18:44:09;3.15;;;1.80;;
69991;SDS011;57332;51.320;-0.580;2022-09-09T18:46:40;3.40;;;1.60;;
69991;SDS011;57332;51.320;-0.580;2022-09-09T18:49:07;3.00;;;1.95;;
69991;SDS011;57332;51.320;-0.580;2022-09-09T18:51:33;3.42;;;2.10;;
69991;SDS011;57332;51.320;-0.580;2022-09-09T18:54:06;2.78;;;2.00;;
69991;SDS011;57332;51.320;-0.580;2022-09-09T18:56:35;5.13;;;1.88;;
69991;SDS011;57332;51.320;-0.580;2022-09-09T18:59:03;4.13;;;1.80;;
69991;SDS011;57332;51.320;-0.580;2022-09-09T19:01:35;3.72;;;2.20;;
69991;SDS011;57332;51.320;-0.580;2022-09-09T19:04:08;3.08;;;1.92;;
69991;SDS011;57332;51.320;-0.580;2022-09-09T19:06:39;3.72;;;1.88;;
69991;SDS011;57332;51.320;-0.580;2022-09-09T19:09:16;3.20;;;2.20;;
69991;SDS011;57332;51.320;-0.580;2022-09-09T19:12:04;3.47;;;1.77;;
69991;SDS011;57332;51.320;-0.580;2022-09-09T19:14:41;7.97;;;2.10;;
69991;SDS011;57332;51.320;-0.580;2022-09-09T19:17:24;4.05;;;2.25;;
69991;SDS011;57332;51.320;-0.580;2022-09-09T19:19:52;4.15;;;2.03;;
69991;SDS011;57332;51.320;-0.580;2022-09-09T19:22:21;4.70;;;2.08;;
69991;SDS011;57332;51.320;-0.580;2022-09-09T19:24:49;6.20;;;2.85;;
69991;SDS011;57332;51.320;-0.580;2022-09-09T19:27:18;3.78;;;2.30;;
69991;SDS011;57332;51.320;-0.580;2022-09-09T19:29:47;3.83;;;2.28;;
69991;SDS011;57332;51.320;-0.580;2022-09-09T19:32:14;4.50;;;2.40;;
69991;SDS011;57332;51.320;-0.580;2022-09-09T19:35:02;6.45;;;3.20;;
69991;SDS011;57332;51.320;-0.580;2022-09-09T19:37:29;4.97;;;1.80;;
69991;SDS011;57332;51.320;-0.580;2022-09-09T19:40:02;3.67;;;2.30;;
69991;SDS011;57332;51.320;-0.580;2022-09-09T19:42:33;3.85;;;2.40;;
69991;SDS011;57332;51.320;-0.580;2022-09-09T19:45:00;6.85;;;2.33;;